Time;durP1;ratioP1;P1;durP2;ratioP2;P2;SDS_P1;SDS_P2;PMS_P1;PMS_P2;Temp;Humidity;BMP_temperature;BMP_pressure;BME280_temperature;BME280_humidity;BME280_pressure;Samples;Min_cycle;Max_cycle;Signal;HPM_P1;HPM_P2
2021/01/03 00:02:09;;;;;;;20.48;15.05;;;;;;;7.77;56.41;93969.88;5043628;28;20040;-75
2021/01/03 00:04:35;;;;;;;24.35;15.93;;;;;;;7.80;56.37;93979.84;5046871;28;20052;-75
2021/01/03 00:07:01;;;;;;;31.17;18.80;;;;;;;7.79;56.29;93986.16;5067325;28;20075;-74
2021/01/03 00:09:27;;;;;;;26.63;16.95;;;;;;;7.77;56.48;93972.50;5069066;28;20115;-75
2021/01/03 00:11:53;;;;;;;23.30;15.45;;;;;;;7.82;56.92;93982.97;5066106;28;20119;-75
2021/01/03 00:14:20;;;;;;;20.60;14.07;;;;;;;7.79;56.58;93970.38;5068151;28;20597;-75
2021/01/03 00:16:47;;;;;;;23.20;16.35;;;;;;;7.82;56.31;93986.41;5067983;28;20376;-75
2021/01/03 00:19:13;;;;;;;18.77;13.48;;;;;;;7.67;56.31;93983.78;5069972;28;20120;-75
2021/01/03 00:21:38;;;;;;;21.70;14.90;;;;;;;7.67;56.69;93983.03;5054285;28;20040;-75
2021/01/03 00:24:04;;;;;;;25.70;15.15;;;;;;;7.71;57.02;93986.69;5046968;28;20044;-75
2021/01/03 00:26:30;;;;;;;26.95;17.13;;;;;;;7.48;56.73;93955.72;5048287;28;20596;-75
2021/01/03 00:28:55;;;;;;;26.95;16.90;;;;;;;7.71;56.64;93978.81;5048453;28;20103;-75
2021/01/03 00:31:23;;;;;;;22.08;15.73;;;;;;;7.76;56.61;93978.81;5047777;28;20504;-74
2021/01/03 00:33:48;;;;;;;21.95;14.55;;;;;;;7.77;56.64;93968.00;5044637;28;20079;-75
2021/01/03 00:36:14;;;;;;;26.98;17.38;;;;;;;7.70;56.97;93959.59;5056984;28;20120;-75
2021/01/03 00:38:39;;;;;;;23.38;15.77;;;;;;;7.78;56.91;93961.69;5066996;28;20040;-75
2021/01/03 00:41:04;;;;;;;27.50;18.48;;;;;;;7.85;56.80;93966.69;5069519;28;20032;-75
2021/01/03 00:43:30;;;;;;;27.45;17.77;;;;;;;7.88;56.92;93960.06;5069034;28;20024;-75
2021/01/03 00:45:55;;;;;;;26.95;17.65;;;;;;;7.92;57.79;93959.28;5071184;28;20048;-75
2021/01/03 00:48:21;;;;;;;25.88;16.42;;;;;;;7.97;57.46;93975.03;5057528;28;20047;-75
2021/01/03 00:50:46;;;;;;;26.73;17.90;;;;;;;8.04;57.20;93964.25;5058544;28;20047;-75
2021/01/03 00:53:12;;;;;;;29.95;17.40;;;;;;;8.05;56.46;93966.63;5047063;28;20512;-75
2021/01/03 00:55:37;;;;;;;20.73;14.00;;;;;;;7.96;56.54;93954.28;5068599;28;20430;-75
2021/01/03 00:58:03;;;;;;;28.67;16.00;;;;;;;8.03;56.62;93946.88;5072568;28;20051;-75
2021/01/03 01:00:33;;;;;;;23.90;15.45;;;;;;;8.03;57.42;93952.94;5065797;28;20040;-75
2021/01/03 01:03:00;;;;;;;24.55;16.88;;;;;;;8.09;58.06;93946.59;5069343;28;20078;-74
2021/01/03 01:05:26;;;;;;;26.60;16.90;;;;;;;8.17;58.21;93943.41;5067802;28;20048;-75
2021/01/03 01:07:52;;;;;;;25.95;17.25;;;;;;;8.23;58.28;93946.81;5067559;28;20026;-75
2021/01/03 01:10:25;;;;;;;27.27;16.48;;;;;;;8.33;58.36;93941.53;5055247;28;20052;-75
2021/01/03 01:12:52;;;;;;;25.60;16.45;;;;;;;8.41;58.11;93933.03;5071846;28;20137;-75
2021/01/03 01:15:23;;;;;;;27.65;17.58;;;;;;;8.50;58.26;93933.28;5073606;28;20044;-74
2021/01/03 01:17:51;;;;;;;29.23;19.63;;;;;;;8.60;58.49;93933.25;5067074;28;20610;-75
2021/01/03 01:20:21;;;;;;;26.88;18.13;;;;;;;8.63;59.08;93927.41;5071148;28;20137;-75
2021/01/03 01:22:47;;;;;;;28.17;19.85;;;;;;;8.68;59.24;93919.47;5034521;28;20055;-75
2021/01/03 01:25:15;;;;;;;28.83;19.58;;;;;;;8.79;59.21;93913.09;5069951;28;20102;-75
2021/01/03 01:27:41;;;;;;;32.17;18.85;;;;;;;8.68;60.08;93922.13;5056330;28;20513;-75
2021/01/03 01:30:09;;;;;;;39.70;21.75;;;;;;;8.68;60.84;93907.09;5051144;28;20075;-74
2021/01/03 01:32:35;;;;;;;29.10;19.38;;;;;;;8.71;60.68;93905.75;5049487;28;20129;-75
2021/01/03 01:35:01;;;;;;;30.75;20.00;;;;;;;8.67;61.03;93907.34;5043020;28;20073;-75
2021/01/03 01:37:26;;;;;;;30.80;19.75;;;;;;;8.73;61.39;93911.53;5074386;28;20364;-75
2021/01/03 01:39:52;;;;;;;28.38;19.33;;;;;;;8.73;61.29;93893.09;5051823;28;20571;-75
2021/01/03 01:42:18;;;;;;;31.98;21.23;;;;;;;8.80;61.24;93893.56;5062213;28;20032;-75
2021/01/03 01:44:43;;;;;;;31.73;20.23;;;;;;;8.83;61.77;93893.03;5069481;28;20048;-74
2021/01/03 01:47:19;;;;;;;36.58;21.42;;;;;;;8.92;62.07;93893.22;5064741;28;20048;-75
2021/01/03 01:49:46;;;;;;;34.08;21.15;;;;;;;8.86;62.32;93886.41;5044667;28;20037;-75
2021/01/03 01:52:19;;;;;;;31.10;20.02;;;;;;;8.83;62.20;93871.94;5055575;28;20043;-74
2021/01/03 01:54:50;;;;;;;37.92;21.67;;;;;;;8.86;62.33;93881.13;5052459;28;20502;-75
2021/01/03 01:57:36;;;;;;;37.25;22.20;;;;;;;8.85;62.67;93877.72;5049886;28;20093;-75
2021/01/03 02:00:20;;;;;;;33.70;21.13;;;;;;;8.80;63.28;93872.47;5048374;28;20044;-74
2021/01/03 02:03:04;;;;;;;33.58;21.63;;;;;;;8.80;63.96;93861.94;5064665;28;20363;-75
2021/01/03 02:05:40;;;;;;;42.63;26.60;;;;;;;8.91;63.98;93871.34;5054386;28;20043;-75
2021/01/03 02:08:08;;;;;;;43.55;25.42;;;;;;;8.93;64.44;93871.09;5062973;28;21181;-74
2021/01/03 02:10:41;;;;;;;39.13;23.92;;;;;;;8.96;64.43;93866.03;5051433;28;20520;-75
2021/01/03 02:13:06;;;;;;;38.92;24.27;;;;;;;9.05;64.42;93869.66;5047990;28;20086;-75
2021/01/03 02:15:32;;;;;;;38.50;23.40;;;;;;;9.10;64.43;93864.34;5050063;28;20064;-75
2021/01/03 02:18:01;;;;;;;39.92;25.98;;;;;;;9.17;64.05;93863.22;5053636;28;20032;-74
2021/01/03 02:20:33;;;;;;;36.22;23.85;;;;;;;9.19;64.14;93842.66;5049302;28;20036;-75
2021/01/03 02:23:04;;;;;;;40.90;24.63;;;;;;;9.26;64.10;93856.28;5048081;28;20034;-75
2021/01/03 02:25:30;;;;;;;44.63;26.08;;;;;;;9.29;63.70;93853.09;5046440;28;20504;-74
2021/01/03 02:28:16;;;;;;;42.67;26.35;;;;;;;9.34;63.27;93856.47;5052633;28;20052;-75
2021/01/03 02:30:45;;;;;;;38.03;25.05;;;;;;;9.36;62.94;93848.28;5048370;28;20052;-75
2021/01/03 02:33:11;;;;;;;36.92;24.63;;;;;;;9.34;63.12;93855.66;5049658;28;20059;-75
2021/01/03 02:35:39;;;;;;;36.60;23.92;;;;;;;9.31;63.39;93864.16;5049301;28;20503;-75
2021/01/03 02:38:07;;;;;;;35.50;24.40;;;;;;;9.29;63.51;93858.34;5067354;28;20533;-75
2021/01/03 02:40:33;;;;;;;38.53;23.58;;;;;;;9.28;63.37;93847.03;5068574;28;20027;-75
2021/01/03 02:42:58;;;;;;;39.67;23.63;;;;;;;9.35;63.06;93857.25;5070939;28;20127;-75
2021/01/03 02:45:27;;;;;;;38.33;24.08;;;;;;;9.41;63.24;93867.47;5069821;28;20487;-75
2021/01/03 02:47:56;;;;;;;35.33;21.92;;;;;;;9.44;62.97;93866.13;5069069;28;20044;-75
2021/01/03 02:50:24;;;;;;;29.30;20.42;;;;;;;9.49;62.75;93860.78;5067195;28;20136;-75
2021/01/03 02:52:51;;;;;;;30.75;21.42;;;;;;;9.44;62.49;93866.13;5067880;28;21571;-74
2021/01/03 02:55:18;;;;;;;38.35;22.35;;;;;;;9.34;62.92;93860.94;5072557;28;20357;-74
2021/01/03 02:57:44;;;;;;;31.27;21.05;;;;;;;9.40;62.90;93852.72;5072379;28;20032;-74
2021/01/03 03:00:15;;;;;;;35.05;21.50;;;;;;;9.51;62.50;93863.94;5069137;28;20088;-75
2021/01/03 03:02:41;;;;;;;32.05;21.38;;;;;;;9.49;62.45;93868.72;5069587;28;20036;-75
2021/01/03 03:05:07;;;;;;;31.77;22.20;;;;;;;9.51;62.72;93863.94;5068283;28;20339;-75
2021/01/03 03:07:33;;;;;;;30.75;20.35;;;;;;;9.57;62.30;93874.19;5071860;28;20118;-75
2021/01/03 03:09:58;;;;;;;38.25;22.55;;;;;;;9.54;62.94;93866.03;5072725;28;20034;-75
2021/01/03 03:12:23;;;;;;;37.20;22.50;;;;;;;9.42;63.16;93855.88;5066385;28;20575;-74
2021/01/03 03:14:49;;;;;;;34.80;21.88;;;;;;;9.41;63.49;93867.47;5068603;28;20047;-75
2021/01/03 03:17:14;;;;;;;33.63;22.33;;;;;;;9.51;63.43;93861.31;5068692;28;20528;-75
2021/01/03 03:19:40;;;;;;;33.58;20.52;;;;;;;9.54;63.97;93872.09;5056608;28;20024;-75
2021/01/03 03:22:06;;;;;;;31.73;20.13;;;;;;;9.51;64.08;93856.03;5072830;28;20044;-75
2021/01/03 03:24:31;;;;;;;32.38;20.85;;;;;;;9.54;63.96;93860.75;5065475;28;20032;-75
2021/01/03 03:27:00;;;;;;;33.85;20.98;;;;;;;9.62;64.35;93862.78;5070693;28;20476;-75
2021/01/03 03:29:26;;;;;;;32.28;20.05;;;;;;;9.54;64.48;93848.34;5066276;28;20036;-75
2021/01/03 03:31:53;;;;;;;25.40;18.95;;;;;;;9.63;64.77;93859.06;5063573;28;20511;-75
2021/01/03 03:34:20;;;;;;;29.35;19.77;;;;;;;9.66;64.59;93852.44;5068749;28;20035;-75
2021/01/03 03:36:46;;;;;;;29.80;20.38;;;;;;;9.64;64.68;93847.44;5065552;28;20084;-75
2021/01/03 03:39:12;;;;;;;32.50;20.33;;;;;;;9.63;64.88;93851.16;5067453;28;20049;-75
2021/01/03 03:41:38;;;;;;;30.58;19.83;;;;;;;9.66;64.72;93858.50;5070312;28;20052;-75
2021/01/03 03:44:05;;;;;;;31.67;21.23;;;;;;;9.64;64.41;93859.84;5066793;28;20480;-75
2021/01/03 03:46:30;;;;;;;24.58;18.35;;;;;;;9.64;64.28;93850.09;5067539;28;20040;-75
2021/01/03 03:48:56;;;;;;;26.95;17.60;;;;;;;9.64;64.18;93844.81;5068477;28;20081;-75
2021/01/03 03:51:22;;;;;;;31.30;18.80;;;;;;;9.68;63.96;93851.09;5062989;28;20157;-75
2021/01/03 03:53:48;;;;;;;25.17;17.70;;;;;;;9.68;63.61;93851.09;5065345;28;20040;-75
2021/01/03 03:56:16;;;;;;;24.75;18.00;;;;;;;9.71;63.41;93849.75;5055070;28;20141;-75
2021/01/03 03:58:41;;;;;;;27.33;19.00;;;;;;;9.70;63.42;93848.19;5066535;28;20528;-75
2021/01/03 04:01:08;;;;;;;28.33;17.52;;;;;;;9.72;63.54;93852.13;5065457;28;20127;-75
2021/01/03 04:03:33;;;;;;;35.05;24.30;;;;;;;9.70;63.65;93848.97;5064606;28;20373;-75
2021/01/03 04:06:00;;;;;;;34.42;24.27;;;;;;;9.71;64.10;93841.84;5068284;28;20070;-75
2021/01/03 04:08:26;;;;;;;47.58;26.73;;;;;;;9.70;64.35;93850.81;5066040;28;20038;-75
2021/01/03 04:10:51;;;;;;;36.00;24.05;;;;;;;9.68;64.59;93845.81;5066886;28;20494;-75
2021/01/03 04:13:17;;;;;;;37.15;22.40;;;;;;;9.67;64.86;93844.25;5070465;28;20028;-75
2021/01/03 04:15:42;;;;;;;38.47;22.65;;;;;;;9.71;64.53;93842.63;5064003;28;20136;-75
2021/01/03 04:18:08;;;;;;;29.88;19.88;;;;;;;9.75;64.70;93851.53;5067152;28;20076;-75
2021/01/03 04:20:35;;;;;;;26.17;15.85;;;;;;;9.75;64.21;93846.28;5062683;28;20036;-75
2021/01/03 04:23:00;;;;;;;27.80;16.98;;;;;;;9.76;64.42;93845.22;5064525;28;20023;-75
2021/01/03 04:25:26;;;;;;;22.83;16.38;;;;;;;9.80;64.42;93856.78;5066573;28;20936;-75
2021/01/03 04:27:53;;;;;;;24.58;16.20;;;;;;;9.78;64.85;93850.97;5068333;28;20044;-75
2021/01/03 04:30:21;;;;;;;24.05;15.68;;;;;;;9.79;65.14;93857.84;5069868;28;20074;-75
2021/01/03 04:32:47;;;;;;;44.97;24.25;;;;;;;9.82;65.33;93856.50;5066227;28;20040;-75
2021/01/03 04:35:12;;;;;;;54.92;28.15;;;;;;;9.80;65.52;93856.78;5064299;28;20047;-75
2021/01/03 04:37:38;;;;;;;62.22;32.60;;;;;;;9.75;64.86;93856.81;5068558;28;20567;-75
2021/01/03 04:40:06;;;;;;;52.72;26.42;;;;;;;9.76;64.67;93850.50;5066580;28;20040;-75
2021/01/03 04:42:34;;;;;;;29.15;16.52;;;;;;;9.83;64.54;93861.47;5069515;28;20036;-75
2021/01/03 04:45:06;;;;;;;19.77;14.82;;;;;;;9.82;64.80;93867.06;5061044;28;20662;-75
2021/01/03 04:47:39;;;;;;;31.45;18.30;;;;;;;9.87;65.29;93867.00;5058207;28;20039;-75
2021/01/03 04:50:23;;;;;;;22.67;15.13;;;;;;;9.81;65.54;93855.72;5069516;28;20048;-75
2021/01/03 04:53:11;;;;;;;22.02;13.90;;;;;;;9.80;65.35;93864.69;5069851;28;20061;-75
2021/01/03 04:56:21;;;;;;;16.17;11.85;;;;;;;9.84;65.08;93868.34;5054093;28;20025;-75
2021/01/03 04:59:07;;;;;;;16.17;10.50;;;;;;;9.76;65.22;93860.25;4989244;28;20085;-75
2021/01/03 05:01:38;;;;;;;19.35;11.45;;;;;;;9.78;65.24;93869.44;5066311;28;20027;-75
2021/01/03 05:04:41;;;;;;;16.70;11.57;;;;;;;9.76;65.47;93863.69;5067831;28;20036;-75
2021/01/03 05:07:29;;;;;;;13.48;9.77;;;;;;;9.71;65.63;93860.31;5070145;28;20091;-75
2021/01/03 05:10:22;;;;;;;17.77;11.00;;;;;;;9.78;65.35;93866.81;5070740;28;20547;-75
2021/01/03 05:13:09;;;;;;;19.13;11.55;;;;;;;9.81;65.40;93866.28;5054961;28;20424;-75
2021/01/03 05:15:35;;;;;;;17.02;11.60;;;;;;;9.76;65.53;93860.25;5071857;28;20032;-75
2021/01/03 05:18:04;;;;;;;15.82;10.60;;;;;;;9.86;65.34;93857.50;5069321;28;20044;-75
2021/01/03 05:20:29;;;;;;;22.20;13.63;;;;;;;9.77;65.39;93867.09;5073437;28;20575;-75
2021/01/03 05:23:21;;;;;;;16.98;11.32;;;;;;;9.70;64.92;93859.53;5069092;28;20024;-74
2021/01/03 05:25:49;;;;;;;17.55;12.60;;;;;;;9.73;64.58;93866.88;5071107;28;20147;-75
2021/01/03 05:28:54;;;;;;;16.90;11.27;;;;;;;9.81;64.75;93866.28;5059252;28;20028;-75
2021/01/03 05:31:21;;;;;;;15.75;10.30;;;;;;;9.77;64.77;93851.28;5070185;28;20442;-75
2021/01/03 05:33:56;;;;;;;16.77;10.50;;;;;;;9.86;64.55;93866.22;5071839;28;20092;-75
2021/01/03 05:36:46;;;;;;;16.75;10.75;;;;;;;9.83;64.83;93869.38;5050226;28;20039;-75
2021/01/03 05:39:19;;;;;;;15.77;10.05;;;;;;;9.86;64.86;93854.88;5055218;28;20032;-75
2021/01/03 05:41:44;;;;;;;19.67;12.20;;;;;;;9.90;65.05;93859.28;5065833;28;20032;-75
2021/01/03 05:44:27;;;;;;;21.08;10.73;;;;;;;9.93;65.04;93864.00;5072808;28;20346;-75
2021/01/03 05:47:02;;;;;;;14.05;9.60;;;;;;;9.95;65.23;93872.44;5071261;28;20027;-75
2021/01/03 05:49:28;;;;;;;17.50;10.40;;;;;;;9.92;65.18;93870.34;5073732;28;20024;-75
2021/01/03 05:52:29;;;;;;;19.23;11.32;;;;;;;9.94;65.35;93870.84;5052721;28;20045;-75
2021/01/03 05:55:01;;;;;;;19.38;13.50;;;;;;;9.89;65.71;93873.56;5072938;28;20044;-75
2021/01/03 05:57:34;;;;;;;18.33;13.40;;;;;;;9.94;65.48;93870.06;5055456;28;20063;-75
2021/01/03 06:00:14;;;;;;;26.88;16.95;;;;;;;9.90;65.52;93872.50;5070173;28;20047;-75
2021/01/03 06:02:40;;;;;;;20.67;14.70;;;;;;;9.91;65.61;93878.56;5070449;28;20400;-75
2021/01/03 06:05:08;;;;;;;24.40;16.90;;;;;;;9.92;65.58;93872.97;5069777;28;20054;-75
2021/01/03 06:07:35;;;;;;;33.83;21.45;;;;;;;9.94;65.48;93881.41;5056040;28;20024;-75
2021/01/03 06:10:23;;;;;;;33.85;23.35;;;;;;;9.90;65.56;93880.41;5072781;28;20036;-75
2021/01/03 06:12:59;;;;;;;31.75;20.00;;;;;;;9.86;65.69;93874.13;5040203;28;20055;-74
2021/01/03 06:15:27;;;;;;;30.23;20.92;;;;;;;9.87;65.71;93886.22;5050762;28;20558;-74
2021/01/03 06:17:58;;;;;;;29.10;19.98;;;;;;;9.87;65.70;93880.97;5072449;28;20040;-75
2021/01/03 06:20:27;;;;;;;31.20;20.98;;;;;;;9.82;65.57;93882.88;5070170;28;20067;-75
2021/01/03 06:23:07;;;;;;;26.63;19.15;;;;;;;9.86;65.94;93889.19;5071312;28;20028;-75
2021/01/03 06:25:42;;;;;;;33.22;21.15;;;;;;;9.86;65.86;93889.97;5074184;28;20032;-75
2021/01/03 06:28:20;;;;;;;28.27;20.83;;;;;;;9.87;65.75;93891.50;5055554;28;20075;-74
2021/01/03 06:31:02;;;;;;;31.85;21.15;;;;;;;9.86;65.58;93900.53;5055496;28;20060;-74
2021/01/03 06:33:31;;;;;;;34.17;23.75;;;;;;;9.91;65.67;93903.09;5068934;28;20101;-75
2021/01/03 06:36:05;;;;;;;37.80;25.33;;;;;;;9.92;65.51;93904.66;5069529;28;20389;-75
2021/01/03 06:38:30;;;;;;;42.85;26.65;;;;;;;9.89;65.52;93899.94;5069855;28;20517;-76
2021/01/03 06:41:07;;;;;;;39.63;24.58;;;;;;;9.88;65.58;93902.84;5071623;28;20047;-75
2021/01/03 06:43:48;;;;;;;39.10;25.15;;;;;;;9.87;65.70;93902.06;5071345;28;20127;-76
2021/01/03 06:46:43;;;;;;;77.65;36.08;;;;;;;9.84;66.23;93907.91;5072747;28;20075;-75
2021/01/03 06:49:31;;;;;;;35.55;21.67;;;;;;;9.85;65.94;93906.88;5052920;28;20036;-75
2021/01/03 06:52:08;;;;;;;35.97;22.88;;;;;;;9.88;65.96;93908.94;5055659;28;20147;-76
2021/01/03 06:55:10;;;;;;;53.13;26.83;;;;;;;9.89;66.51;93913.16;5049638;28;20036;-76
2021/01/03 06:58:00;;;;;;;38.35;25.45;;;;;;;9.91;66.32;93918.94;5050660;28;20163;-76
2021/01/03 07:00:36;;;;;;;36.20;22.95;;;;;;;9.95;66.09;93919.16;5046558;28;20049;-76
2021/01/03 07:03:14;;;;;;;35.10;23.67;;;;;;;10.00;66.49;93916.47;5044840;28;20045;-76
2021/01/03 07:05:51;;;;;;;34.33;22.48;;;;;;;10.06;66.27;93911.91;5049991;28;20037;-76
2021/01/03 07:08:18;;;;;;;35.00;21.83;;;;;;;10.09;66.11;93903.41;5048190;28;20127;-76
2021/01/03 07:10:44;;;;;;;33.50;25.65;;;;;;;10.09;67.03;93903.41;5050785;28;20073;-76
2021/01/03 07:13:36;;;;;;;32.50;23.35;;;;;;;10.12;67.57;93902.84;5049103;28;20082;-76
2021/01/03 07:16:02;;;;;;;34.70;23.00;;;;;;;10.13;67.83;93917.63;5051493;28;20068;-76
2021/01/03 07:18:52;;;;;;;35.70;23.52;;;;;;;10.17;68.10;93906.25;5048315;28;20052;-76
2021/01/03 07:21:41;;;;;;;40.03;22.85;;;;;;;10.16;68.25;93895.97;5054176;28;20039;-76
2021/01/03 07:24:23;;;;;;;29.45;21.60;;;;;;;10.15;68.70;93897.00;5069200;28;20378;-75
2021/01/03 07:27:24;;;;;;;34.75;24.10;;;;;;;10.19;68.78;93882.19;5061478;28;20040;-76
2021/01/03 07:29:55;;;;;;;40.45;28.88;;;;;;;10.11;69.35;93885.44;5050286;28;20076;-75
2021/01/03 07:32:41;;;;;;;47.90;34.33;;;;;;;10.11;69.45;93882.81;5050884;28;20072;-76
2021/01/03 07:35:11;;;;;;;49.25;33.63;;;;;;;10.18;70.00;93875.34;5046863;28;20052;-76
2021/01/03 07:37:38;;;;;;;35.53;24.77;;;;;;;10.23;70.20;93883.19;5047783;28;20408;-76
2021/01/03 07:40:05;;;;;;;34.50;23.73;;;;;;;10.30;70.21;93886.28;5052410;28;20047;-76
2021/01/03 07:42:35;;;;;;;32.60;23.33;;;;;;;10.32;70.28;93869.06;5046252;28;20413;-76
2021/01/03 07:45:24;;;;;;;34.45;20.83;;;;;;;10.39;70.30;93882.72;5049277;28;20036;-76
2021/01/03 07:47:52;;;;;;;39.10;25.73;;;;;;;10.41;70.00;93888.50;5030392;28;20049;-76
2021/01/03 07:50:18;;;;;;;35.45;24.08;;;;;;;10.47;69.72;93888.44;5048518;28;20416;-76
2021/01/03 07:52:52;;;;;;;46.63;29.17;;;;;;;10.49;69.70;93886.31;5048672;28;20063;-76
2021/01/03 07:55:20;;;;;;;46.00;28.15;;;;;;;10.58;69.27;93882.75;5050433;28;20568;-76
2021/01/03 07:57:45;;;;;;;46.33;31.45;;;;;;;10.73;69.15;93881.72;5049623;28;20052;-76
2021/01/03 08:00:14;;;;;;;53.97;33.72;;;;;;;10.99;68.65;93890.06;5047580;28;20044;-76
2021/01/03 08:02:39;;;;;;;51.08;33.05;;;;;;;11.12;68.54;93894.63;5048194;28;20045;-76
2021/01/03 08:05:06;;;;;;;47.30;32.60;;;;;;;11.25;67.66;93896.50;5047169;28;20025;-76
2021/01/03 08:07:31;;;;;;;53.03;32.75;;;;;;;11.37;67.39;93902.16;5051467;28;20017;-76
2021/01/03 08:10:05;;;;;;;65.50;40.08;;;;;;;11.47;67.44;93906.47;5069166;28;20047;-76
2021/01/03 08:12:37;;;;;;;51.67;33.85;;;;;;;11.62;66.78;93912.31;5068918;28;20280;-76
2021/01/03 08:15:11;;;;;;;50.55;33.47;;;;;;;11.76;66.89;93919.50;5068698;28;20028;-76
2021/01/03 08:17:42;;;;;;;47.17;30.40;;;;;;;11.76;66.56;93932.75;5072708;28;20534;-76
2021/01/03 08:20:16;;;;;;;42.08;28.73;;;;;;;11.74;66.56;93938.31;5075092;28;20040;-76
2021/01/03 08:22:41;;;;;;;40.75;28.27;;;;;;;11.64;66.24;93939.25;5071134;28;20299;-75
2021/01/03 08:25:15;;;;;;;39.03;29.98;;;;;;;11.55;66.78;93964.81;5071671;28;20039;-76
2021/01/03 08:27:45;;;;;;;41.17;28.58;;;;;;;11.54;67.00;93944.72;5067730;28;20130;-76
2021/01/03 08:30:21;;;;;;;36.33;24.23;;;;;;;11.53;66.52;93948.44;5052787;28;20094;-76
2021/01/03 08:32:47;;;;;;;41.67;27.85;;;;;;;11.53;67.03;93948.44;5045541;28;20520;-76
2021/01/03 08:35:27;;;;;;;35.72;26.52;;;;;;;11.55;66.95;93956.88;5057364;28;20051;-76
2021/01/03 08:37:53;;;;;;;38.40;27.42;;;;;;;11.56;66.90;93960.31;5069673;28;20055;-76
2021/01/03 08:40:32;;;;;;;38.67;26.92;;;;;;;11.55;66.88;93951.59;5071039;28;20649;-76
2021/01/03 08:43:14;;;;;;;42.72;29.25;;;;;;;11.63;66.87;93947.50;5065657;28;20078;-76
2021/01/03 08:45:42;;;;;;;43.80;31.08;;;;;;;11.57;66.70;93956.59;5065978;28;20076;-76
2021/01/03 08:48:20;;;;;;;46.40;32.42;;;;;;;11.66;66.45;93958.28;5069112;28;20036;-76
2021/01/03 08:50:46;;;;;;;47.72;35.00;;;;;;;11.77;66.71;93966.09;5052853;28;20048;-76
2021/01/03 08:53:21;;;;;;;47.40;35.30;;;;;;;11.81;66.78;93972.38;5069059;28;20058;-76
2021/01/03 08:55:47;;;;;;;47.53;36.00;;;;;;;11.82;66.11;93981.88;5050398;28;20125;-76
2021/01/03 08:58:18;;;;;;;53.20;36.97;;;;;;;11.83;66.01;93972.84;5072783;28;20069;-76
2021/01/03 09:00:48;;;;;;;47.33;35.05;;;;;;;11.79;65.83;93972.66;5062448;28;20036;-76
2021/01/03 09:03:19;;;;;;;44.58;33.42;;;;;;;11.90;66.13;93982.00;5051849;28;20040;-76
2021/01/03 09:05:48;;;;;;;42.90;31.17;;;;;;;11.97;65.72;93976.31;5069262;28;20040;-76
2021/01/03 09:08:24;;;;;;;44.85;31.60;;;;;;;11.96;65.78;93972.88;5067477;28;20044;-76
2021/01/03 09:10:50;;;;;;;41.78;31.08;;;;;;;12.00;66.28;93983.69;5065879;28;20027;-76
2021/01/03 09:13:27;;;;;;;36.65;28.08;;;;;;;11.93;66.54;93986.69;5074043;28;20031;-76
2021/01/03 09:16:09;;;;;;;37.90;28.40;;;;;;;11.88;66.80;93975.41;5071059;28;20040;-76
2021/01/03 09:18:40;;;;;;;46.38;33.30;;;;;;;11.93;66.22;93977.97;5065821;28;20055;-76
2021/01/03 09:21:10;;;;;;;52.75;34.33;;;;;;;12.01;66.13;93974.66;5052397;28;20147;-76
2021/01/03 09:23:41;;;;;;;43.22;32.80;;;;;;;12.08;65.93;93965.22;5067393;28;20067;-76
2021/01/03 09:26:08;;;;;;;37.97;28.52;;;;;;;12.13;65.51;93967.00;5069376;28;20740;-76
2021/01/03 09:28:40;;;;;;;37.65;27.92;;;;;;;12.27;65.28;93964.34;5049682;28;20464;-76
2021/01/03 09:31:17;;;;;;;33.38;24.65;;;;;;;12.42;65.34;93961.41;5070454;28;20051;-77
2021/01/03 09:34:09;;;;;;;36.80;26.15;;;;;;;12.51;64.97;93963.06;5064931;28;20050;-76
2021/01/03 09:36:58;;;;;;;33.65;24.17;;;;;;;12.55;64.87;93963.28;5068971;28;20085;-76
2021/01/03 09:39:59;;;;;;;29.48;22.92;;;;;;;12.62;64.49;93963.66;5067581;28;20040;-76
2021/01/03 09:42:52;;;;;;;32.25;24.45;;;;;;;12.78;64.07;93956.19;5021200;28;22079;-76
2021/01/03 09:45:28;;;;;;;32.50;23.92;;;;;;;12.78;64.59;93950.88;5050162;28;20040;-76
2021/01/03 09:47:54;;;;;;;31.92;20.98;;;;;;;12.70;64.44;93964.84;5069164;28;20476;-76
2021/01/03 09:50:31;;;;;;;30.70;23.20;;;;;;;12.63;64.06;93964.44;5069521;28;20049;-76
2021/01/03 09:53:23;;;;;;;31.48;21.75;;;;;;;12.54;63.96;93954.53;5049024;28;20016;-76
2021/01/03 09:56:14;;;;;;;30.50;21.20;;;;;;;12.45;63.51;93952.88;5048053;28;20028;-77
2021/01/03 09:58:42;;;;;;;29.85;20.25;;;;;;;12.45;63.94;93943.06;5051107;28;20088;-75
2021/01/03 10:01:22;;;;;;;34.60;19.65;;;;;;;12.46;63.80;93939.31;5070507;28;20044;-76
2021/01/03 10:03:47;;;;;;;25.58;19.02;;;;;;;12.58;63.32;93950.22;5066010;28;20155;-76
2021/01/03 10:06:38;;;;;;;26.90;19.73;;;;;;;12.74;63.15;93939.28;5071264;28;20499;-76
2021/01/03 10:09:31;;;;;;;26.92;19.35;;;;;;;13.08;62.97;93944.91;5069394;28;20044;-76
2021/01/03 10:11:57;;;;;;;23.70;16.83;;;;;;;13.23;62.75;93952.56;5057552;28;20044;-76
2021/01/03 10:14:35;;;;;;;22.65;16.80;;;;;;;13.39;60.46;93937.81;5056072;28;20235;-76
2021/01/03 10:17:15;;;;;;;29.48;19.33;;;;;;;13.40;60.17;93931.44;5066979;28;20031;-76
2021/01/03 10:19:41;;;;;;;23.98;17.13;;;;;;;13.43;59.10;93936.16;5076271;28;20032;-76
2021/01/03 10:22:26;;;;;;;23.55;15.50;;;;;;;13.34;59.23;93931.88;5071392;28;20047;-76
2021/01/03 10:24:57;;;;;;;25.27;16.90;;;;;;;13.40;59.54;93934.09;5053730;28;20073;-76
2021/01/03 10:27:22;;;;;;;23.92;18.92;;;;;;;13.50;59.26;93934.91;5070150;28;20566;-77
2021/01/03 10:29:48;;;;;;;26.42;18.83;;;;;;;13.64;58.80;93936.41;5073178;28;20056;-76
2021/01/03 10:32:13;;;;;;;25.98;19.92;;;;;;;13.74;57.90;93935.38;5072337;28;22816;-76
2021/01/03 10:34:39;;;;;;;24.95;18.55;;;;;;;13.85;57.70;93934.81;5054612;28;20492;-76
2021/01/03 10:37:05;;;;;;;27.98;19.73;;;;;;;13.83;58.02;93928.22;5071593;28;20047;-76
2021/01/03 10:39:31;;;;;;;22.33;17.90;;;;;;;13.87;58.09;93923.91;5069261;28;20048;-76
2021/01/03 10:41:58;;;;;;;23.52;18.52;;;;;;;13.85;57.91;93934.81;5070973;28;20052;-76
2021/01/03 10:44:24;;;;;;;25.90;20.08;;;;;;;13.65;58.06;93922.06;5071795;28;20416;-76
2021/01/03 10:46:50;;;;;;;30.25;21.48;;;;;;;13.62;57.75;93913.91;5068803;28;20058;-76
2021/01/03 10:49:16;;;;;;;27.17;19.60;;;;;;;13.60;57.98;93919.53;5076872;28;20466;-76
2021/01/03 10:51:45;;;;;;;25.02;18.98;;;;;;;13.49;57.81;93906.81;5069588;28;20137;-76
2021/01/03 10:54:23;;;;;;;22.98;18.20;;;;;;;13.30;58.21;93899.81;5071784;28;20047;-76
2021/01/03 10:56:53;;;;;;;26.98;17.13;;;;;;;13.38;58.07;93900.97;5068760;28;20059;-76
2021/01/03 10:59:19;;;;;;;26.70;18.63;;;;;;;13.36;58.42;93897.81;5070527;28;20042;-76
2021/01/03 11:01:45;;;;;;;24.33;18.75;;;;;;;13.36;58.29;93895.97;5069999;28;20028;-76
2021/01/03 11:04:11;;;;;;;25.98;19.30;;;;;;;13.31;58.66;93896.09;5080283;28;20063;-76
2021/01/03 11:06:43;;;;;;;28.05;18.95;;;;;;;13.30;58.30;93891.84;5069647;28;20510;-76
2021/01/03 11:09:14;;;;;;;25.35;16.75;;;;;;;13.28;58.30;93894.03;5068978;28;20089;-76
2021/01/03 11:11:39;;;;;;;20.80;16.25;;;;;;;13.26;58.58;93903.38;5071022;28;20040;-76
2021/01/03 11:14:05;;;;;;;25.60;19.00;;;;;;;13.31;58.64;93898.75;5067724;28;20028;-76
2021/01/03 11:16:36;;;;;;;29.05;20.05;;;;;;;13.38;58.78;93900.97;5072213;28;20015;-76
2021/01/03 11:19:04;;;;;;;25.48;18.13;;;;;;;13.29;58.81;93892.94;5070444;28;20490;-76
2021/01/03 11:21:29;;;;;;;27.17;20.05;;;;;;;13.25;59.33;93891.97;5055426;28;20489;-76
2021/01/03 11:23:55;;;;;;;25.25;19.00;;;;;;;13.26;59.26;93893.56;5068188;28;20420;-76
2021/01/03 11:26:28;;;;;;;26.23;18.90;;;;;;;13.34;59.38;93884.84;5074834;28;20089;-76
2021/01/03 11:28:54;;;;;;;27.95;19.98;;;;;;;13.41;59.02;93895.84;5069761;28;20020;-76
2021/01/03 11:31:19;;;;;;;32.75;22.85;;;;;;;13.44;59.21;93887.25;5076425;28;20389;-76
2021/01/03 11:33:44;;;;;;;28.13;20.10;;;;;;;13.53;58.97;93889.19;5066803;28;20121;-76
2021/01/03 11:36:11;;;;;;;29.52;19.45;;;;;;;13.66;58.73;93888.31;5068293;28;20033;-76
2021/01/03 11:38:37;;;;;;;26.65;18.40;;;;;;;13.86;57.98;93885.94;5070077;28;20052;-76
2021/01/03 11:41:02;;;;;;;24.70;18.38;;;;;;;13.99;57.05;93880.81;5066332;28;20741;-76
2021/01/03 11:43:28;;;;;;;27.27;19.80;;;;;;;14.21;56.64;93891.38;5070202;28;20039;-76